Meteosat more information blitzortung!


aviso para Nieve / Hielo  rain snow radar


Website of another weatherstation

Website of another weatherstation



Nieve/Hielo Desde: 22-01-2019 16:00 Hasta: 23:59 Advertencias para: Nieve/Hielo Nivel: Amarillo info button

Informes METAR proximidad

   
LEDA - Lleida/Alguaire
Actualización: 22-01-2019 19:30
Nubes dispersas  
Nubes dispersas  
   Viento: West 25.9 km/h
Viento: West 25.9 km/h
Temperatura: 5°C
Térmica: 1°C
Punto de rocío: 3°C
Humedad: 87%
Baromètro: 1006 hPa
Nublado: Nubes dispersas
Visibilidad: More than 10 km
detalles de la nube: Nubes dispersas 2500 ft
LEDA 221830Z 27014KT 9999 FEW025 05/03 Q1006
LEXJ - Santander
Actualización: 22-01-2019 19:30
Lluvia, Nublado  
Lluvia, Nublado  
   Viento: WSW 20.4 km/h
Viento: WSW 20.4 km/h
Temperatura: 8°C
Térmica: 5°C
Punto de rocío: 7°C
Humedad: 93%
Baromètro: 1012 hPa
Nublado: Nublado
Visibilidad: 9 km
detalles de la nube: Parcialmente Nublado 2400 ft,
Nublado 3900 ft
LEXJ 221830Z 24011KT 9000 RA SCT024 OVC039 08/07 Q1012
LEBB - Bilbao
Actualización: 22-01-2019 19:30
lluvia, Parcialmente nublado  
lluvia, Parcialmente nublado  
   Viento: WSW 14.8 km/h
Viento: WSW 14.8 km/h
Temperatura: 7°C
Térmica: 4°C
Punto de rocío: 5°C
Humedad: 87%
Baromètro: 1012 hPa
Nublado: Parcialmente nublado
Visibilidad: 9 km
detalles de la nube: Parcialmente Nublado 2200 ft,
Parcialmente nublado 3000 ft
LEBB 221830Z 25008KT 210V290 9000 -RA SCT022 BKN030 07/05 Q1012 TEMPO 3000 RA
LEBL - Barcelona
Actualización: 22-01-2019 19:30
Parcialmente Nublado  
Parcialmente Nublado  
   Viento: WNW 11.1 km/h
Viento: WNW 11.1 km/h
Temperatura: 9°C
Térmica: 7°C
Punto de rocío: 1°C
Humedad: 58%
Baromètro: 1007 hPa
Nublado: Parcialmente Nublado
Visibilidad: More than 10 km
detalles de la nube: Parcialmente Nublado 3700 ft
LEBL 221830Z 29006KT 260V340 9999 SCT037 09/01 Q1007 NOSIG
LEMD - Madrid
Actualización: 22-01-2019 19:30
Parcialmente nublado  
Parcialmente nublado  
   Viento: WSW 9.3 km/h
Viento: WSW 9.3 km/h
Temperatura: 7°C
Térmica: 5°C
Punto de rocío: 4°C
Humedad: 81%
Baromètro: 1013 hPa
Nublado: Parcialmente nublado
Visibilidad: More than 10 km
detalles de la nube: Nubes dispersas 5000 ft,
Parcialmente nublado 7000 ft
LEMD 221830Z 24005KT 9999 FEW050 BKN070 07/04 Q1013 NOSIG
 

Guión original por  Saratoga-weather.org Adaptado para la plantilla por  Weerstation Leuven

Usted encontrará nuestra información del tiempo también en:

Weather Underground

Iberian Peninsula Weather Network